createdAt,value
2022-12-06T00:04:35.515Z,14.87
2022-12-06T00:09:40.267Z,13.47
2022-12-06T00:14:43.059Z,15.53
2022-12-06T00:19:45.576Z,15.50
2022-12-06T00:24:47.935Z,15.47
2022-12-06T00:29:50.615Z,15.90
2022-12-06T00:34:52.946Z,14.00
2022-12-06T00:39:55.360Z,14.87
2022-12-06T00:44:57.721Z,15.20
2022-12-06T00:50:00.465Z,15.53
2022-12-06T00:55:04.034Z,14.60
2022-12-06T01:00:07.433Z,15.30
2022-12-06T01:05:10.511Z,15.23
2022-12-06T01:10:12.880Z,15.43
2022-12-06T01:15:15.691Z,15.97
2022-12-06T01:20:20.236Z,15.20
2022-12-06T01:25:25.891Z,15.17
2022-12-06T01:30:29.581Z,15.67
2022-12-06T01:35:32.027Z,15.30
2022-12-06T01:40:43.755Z,15.00
2022-12-06T01:45:46.404Z,14.60
2022-12-06T01:50:49.759Z,14.73
2022-12-06T01:55:54.437Z,14.30
2022-12-06T02:00:56.817Z,14.73
2022-12-06T02:06:01.106Z,14.60
2022-12-06T02:11:04.817Z,15.93
2022-12-06T02:16:39.284Z,14.73
2022-12-06T02:21:51.279Z,14.63
2022-12-06T02:27:28.412Z,15.57
2022-12-06T02:32:42.313Z,14.70
2022-12-06T02:37:52.743Z,16.47
2022-12-06T02:43:01.575Z,16.57
2022-12-06T02:48:07.631Z,15.73
2022-12-06T02:53:14.012Z,16.33
2022-12-06T02:58:16.530Z,16.70
2022-12-06T03:03:46.472Z,16.20
2022-12-06T03:08:59.893Z,17.90
2022-12-06T03:14:14.757Z,15.97
2022-12-06T03:19:25.393Z,16.83
2022-12-06T03:24:30.212Z,16.83
2022-12-06T03:29:35.231Z,15.93
2022-12-06T03:34:44.069Z,15.27
2022-12-06T03:40:18.327Z,13.80
2022-12-06T03:45:24.687Z,14.67
2022-12-06T03:50:41.089Z,15.00
2022-12-06T03:55:43.503Z,14.13
2022-12-06T04:00:46.477Z,14.50
2022-12-06T04:05:48.891Z,14.50
2022-12-06T04:10:52.726Z,14.60
2022-12-06T04:15:59.235Z,14.97
2022-12-06T04:21:22.614Z,15.57
2022-12-06T04:26:26.598Z,15.63
2022-12-06T04:31:47.581Z,16.53
2022-12-06T04:37:08.685Z,14.90
2022-12-06T04:42:31.546Z,17.47
2022-12-06T04:47:33.898Z,15.80
2022-12-06T04:52:36.574Z,15.43
2022-12-06T04:57:38.947Z,15.57
2022-12-06T05:02:41.509Z,16.83
2022-12-06T05:07:43.926Z,15.90
2022-12-06T05:12:46.319Z,15.37
2022-12-06T05:17:49.234Z,15.83
2022-12-06T05:22:52.287Z,15.93
2022-12-06T05:27:54.715Z,16.50
2022-12-06T05:32:57.268Z,17.33
2022-12-06T05:37:59.653Z,20.43
2022-12-06T05:43:02.638Z,20.37
2022-12-06T05:48:06.629Z,18.13
2022-12-06T05:53:10.077Z,20.03
2022-12-06T05:58:13.993Z,20.23
2022-12-06T06:03:17.622Z,21.57
2022-12-06T06:08:20.221Z,21.57
2022-12-06T06:13:22.961Z,20.03
2022-12-06T06:18:26.051Z,19.50
2022-12-06T06:23:29.443Z,20.47
2022-12-06T06:28:31.834Z,19.47
2022-12-06T06:33:34.865Z,20.27
2022-12-06T06:38:37.802Z,18.40
2022-12-06T06:43:40.807Z,19.53
2022-12-06T06:48:43.497Z,18.63
2022-12-06T06:53:45.989Z,17.57
2022-12-06T06:58:48.599Z,17.17
2022-12-06T07:03:51.897Z,17.57
2022-12-06T07:08:54.393Z,16.57
2022-12-06T07:13:56.723Z,17.47
2022-12-06T07:18:59.074Z,17.90
2022-12-06T07:24:01.580Z,18.87
2022-12-06T07:29:05.132Z,18.40
2022-12-06T07:34:07.612Z,17.27
2022-12-06T07:39:14.969Z,18.17
2022-12-06T07:44:37.900Z,19.67
2022-12-06T07:49:40.316Z,19.83
2022-12-06T07:54:43.043Z,20.93
2022-12-06T07:59:47.483Z,21.03
2022-12-06T08:04:50.375Z,22.67
2022-12-06T08:09:53.502Z,23.90
2022-12-06T08:14:59.575Z,27.47
2022-12-06T08:20:02.894Z,30.17
2022-12-06T08:25:06.840Z,34.40
2022-12-06T08:30:09.488Z,42.50
2022-12-06T08:35:11.975Z,34.17
2022-12-06T08:40:15.457Z,26.83
2022-12-06T08:45:17.974Z,27.70
2022-12-06T08:50:20.346Z,21.67
2022-12-06T08:55:23.175Z,26.97
2022-12-06T09:00:28.799Z,33.20
2022-12-06T09:05:35.464Z,34.73
2022-12-06T09:10:38.768Z,49.37
2022-12-06T09:15:41.160Z,35.10
2022-12-06T09:20:45.740Z,25.80
2022-12-06T09:25:48.803Z,20.87
2022-12-06T09:30:51.186Z,20.10
2022-12-06T09:35:53.698Z,19.50
2022-12-06T09:41:24.902Z,19.30
2022-12-06T09:46:58.459Z,20.57
2022-12-06T09:52:27.585Z,19.03
2022-12-06T09:57:50.667Z,19.40
2022-12-06T10:03:27.044Z,16.70
2022-12-06T10:08:51.262Z,17.57
2022-12-06T10:14:25.056Z,19.27
2022-12-06T10:19:56.729Z,17.40
2022-12-06T10:25:12.385Z,20.93
2022-12-06T10:30:18.785Z,20.30
2022-12-06T10:35:32.532Z,19.07
2022-12-06T10:40:41.069Z,18.50
2022-12-06T10:46:14.314Z,17.90
2022-12-06T10:51:23.978Z,18.13
2022-12-06T10:56:43.797Z,20.00
2022-12-06T11:01:52.237Z,20.07
2022-12-06T11:07:08.663Z,20.10
2022-12-06T11:12:35.296Z,19.80
2022-12-06T11:17:43.258Z,19.73
2022-12-06T11:23:12.598Z,25.20
2022-12-06T11:28:40.344Z,24.17
2022-12-06T11:33:43.201Z,19.23
2022-12-06T11:38:46.596Z,15.13
2022-12-06T11:43:49.798Z,13.13
2022-12-06T11:48:53.141Z,12.77
2022-12-06T11:54:09.881Z,12.47
2022-12-06T11:59:31.024Z,11.23
2022-12-06T12:04:40.575Z,11.57
2022-12-06T12:09:56.539Z,11.33
2022-12-06T12:15:00.720Z,17.57
2022-12-06T12:20:08.546Z,11.93
2022-12-06T12:25:27.785Z,8.63
2022-12-06T12:30:39.281Z,8.37
2022-12-06T12:35:46.399Z,7.60
2022-12-06T12:40:59.838Z,8.60
2022-12-06T12:46:04.661Z,8.50
2022-12-06T12:51:26.353Z,8.13
2022-12-06T12:56:32.744Z,7.63
2022-12-06T13:02:11.083Z,6.70
2022-12-06T13:07:30.111Z,7.10
2022-12-06T13:12:41.151Z,6.90
2022-12-06T13:17:49.268Z,6.97
2022-12-06T13:22:56.040Z,7.37
2022-12-06T13:28:05.612Z,19.93
2022-12-06T13:33:22.252Z,8.43
2022-12-06T13:38:30.944Z,6.13
2022-12-06T13:43:39.280Z,7.53
2022-12-06T13:48:59.151Z,11.50
2022-12-06T13:54:04.927Z,6.40
2022-12-06T13:59:15.114Z,5.60
2022-12-06T14:09:44.781Z,5.70
2022-12-06T14:15:06.205Z,6.80
2022-12-06T14:25:41.508Z,6.50
2022-12-06T14:30:44.543Z,6.37
2022-12-06T14:35:54.524Z,7.97
2022-12-06T14:41:23.265Z,8.67
2022-12-06T14:46:26.906Z,8.10
2022-12-06T14:51:42.784Z,7.47
2022-12-06T14:56:45.667Z,7.13
2022-12-06T15:01:50.801Z,7.80
2022-12-06T15:06:56.577Z,5.70
2022-12-06T15:12:42.187Z,6.13
2022-12-06T15:17:50.345Z,5.97
2022-12-06T15:22:54.117Z,7.90
2022-12-06T15:27:56.833Z,8.17
2022-12-06T15:33:25.348Z,7.87
2022-12-06T15:38:28.116Z,18.17
2022-12-06T15:43:35.675Z,16.40
2022-12-06T15:48:38.262Z,11.17
2022-12-06T15:53:50.252Z,12.70
2022-12-06T15:58:57.068Z,16.27
2022-12-06T16:03:59.893Z,9.63
2022-12-06T16:09:02.885Z,8.43
2022-12-06T16:14:07.259Z,9.93
2022-12-06T16:19:09.855Z,9.70
2022-12-06T16:24:14.456Z,9.80
2022-12-06T16:29:21.073Z,9.50
2022-12-06T16:41:59.361Z,9.87
2022-12-06T16:47:02.292Z,9.83
2022-12-06T16:52:07.372Z,8.97
2022-12-06T16:57:14.051Z,10.20
2022-12-06T17:02:32.202Z,12.43
2022-12-06T17:07:40.961Z,13.50
2022-12-06T17:12:44.605Z,12.07
2022-12-06T17:17:48.116Z,11.60
2022-12-06T17:22:51.152Z,10.33
2022-12-06T17:31:01.739Z,10.13
2022-12-06T17:36:09.136Z,11.47
2022-12-06T17:41:45.844Z,12.37
2022-12-06T17:46:52.710Z,10.87
2022-12-06T17:51:55.453Z,11.00
2022-12-06T17:56:57.982Z,12.40
2022-12-06T18:02:17.994Z,11.97
2022-12-06T18:07:21.228Z,11.63
2022-12-06T18:12:23.869Z,13.10
2022-12-06T18:17:26.295Z,14.23
2022-12-06T18:22:29.299Z,14.23
2022-12-06T18:27:34.831Z,16.67
2022-12-06T18:32:37.282Z,17.57
2022-12-06T18:37:39.864Z,18.50
2022-12-06T18:42:42.261Z,19.60
2022-12-06T18:47:47.641Z,18.40
2022-12-06T18:52:50.111Z,16.07
2022-12-06T18:57:53.125Z,15.23
2022-12-06T19:02:55.645Z,14.03
2022-12-06T19:07:58.107Z,15.63
2022-12-06T19:13:04.130Z,15.90
2022-12-06T19:18:08.348Z,15.83
2022-12-06T19:23:10.774Z,15.57
2022-12-06T19:28:13.146Z,15.37
2022-12-06T19:33:16.620Z,14.00
2022-12-06T19:38:19.378Z,15.90
2022-12-06T19:43:45.516Z,16.97
2022-12-06T19:48:51.215Z,17.03
2022-12-06T19:53:56.011Z,15.47
2022-12-06T19:59:02.660Z,13.30
2022-12-06T20:04:06.522Z,12.80
2022-12-06T20:09:12.722Z,13.10
2022-12-06T20:14:18.218Z,14.33
2022-12-06T20:19:21.540Z,14.20
2022-12-06T20:24:25.571Z,11.90
2022-12-06T20:29:30.031Z,11.80
2022-12-06T20:34:34.750Z,11.40
2022-12-06T20:39:37.703Z,11.93
2022-12-06T20:44:40.814Z,11.43
2022-12-06T20:49:43.410Z,13.10
2022-12-06T20:54:49.047Z,12.53
2022-12-06T20:59:51.735Z,12.47
2022-12-06T21:04:55.078Z,13.30
2022-12-06T21:09:58.665Z,11.73
2022-12-06T21:15:02.504Z,11.07
2022-12-06T21:20:05.731Z,11.97
2022-12-06T21:25:09.152Z,10.83
2022-12-06T21:30:12.073Z,11.60
2022-12-06T21:35:15.380Z,12.03
2022-12-06T21:40:17.916Z,13.03
2022-12-06T21:45:20.828Z,12.97
2022-12-06T21:50:23.607Z,14.07
2022-12-06T21:55:26.685Z,14.40
2022-12-06T22:00:30.144Z,17.13
2022-12-06T22:05:32.541Z,19.20
2022-12-06T22:10:39.284Z,17.53
2022-12-06T22:15:41.791Z,16.87
2022-12-06T22:20:44.410Z,16.43
2022-12-06T22:25:47.742Z,17.30
2022-12-06T22:30:50.317Z,17.30
2022-12-06T22:35:52.748Z,18.63
2022-12-06T22:41:00.009Z,19.13
2022-12-06T22:46:08.266Z,18.57
2022-12-06T22:51:13.366Z,20.03
2022-12-06T22:56:16.243Z,19.70
2022-12-06T23:01:20.579Z,20.13
2022-12-06T23:06:25.544Z,20.13
2022-12-06T23:11:30.585Z,20.03
2022-12-06T23:16:36.301Z,22.00
2022-12-06T23:21:40.850Z,22.07
2022-12-06T23:26:53.133Z,21.27
2022-12-06T23:31:57.303Z,23.13
2022-12-06T23:36:59.782Z,22.23
2022-12-06T23:42:02.743Z,22.20
2022-12-06T23:47:05.650Z,22.47
2022-12-06T23:52:08.808Z,22.23
2022-12-06T23:57:14.831Z,21.83
